sensor_id;sensor_type;location;lat;lon;timestamp;temperature;humidity
10964;DHT22;5534;48.784;9.190;2023-03-05T00:02:06;6.80;99.90
10964;DHT22;5534;48.784;9.190;2023-03-05T00:04:32;6.90;99.90
10964;DHT22;5534;48.784;9.190;2023-03-05T00:06:58;7.00;99.90
10964;DHT22;5534;48.784;9.190;2023-03-05T00:09:26;6.90;99.90
10964;DHT22;5534;48.784;9.190;2023-03-05T00:11:52;6.80;99.90
10964;DHT22;5534;48.784;9.190;2023-03-05T00:14:18;6.80;99.90
10964;DHT22;5534;48.784;9.190;2023-03-05T00:16:43;6.90;99.90
10964;DHT22;5534;48.784;9.190;2023-03-05T00:19:10;6.80;99.90
10964;DHT22;5534;48.784;9.190;2023-03-05T00:21:40;6.80;99.90
10964;DHT22;5534;48.784;9.190;2023-03-05T00:24:12;6.80;99.90
10964;DHT22;5534;48.784;9.190;2023-03-05T00:26:38;6.80;99.90
10964;DHT22;5534;48.784;9.190;2023-03-05T00:29:05;6.80;99.90
10964;DHT22;5534;48.784;9.190;2023-03-05T00:31:32;6.90;99.90
10964;DHT22;5534;48.784;9.190;2023-03-05T00:34:05;6.90;99.90
10964;DHT22;5534;48.784;9.190;2023-03-05T00:36:31;6.90;99.90
10964;DHT22;5534;48.784;9.190;2023-03-05T00:38:58;6.80;99.90
10964;DHT22;5534;48.784;9.190;2023-03-05T00:41:23;6.90;99.90
10964;DHT22;5534;48.784;9.190;2023-03-05T00:43:49;6.90;99.90
10964;DHT22;5534;48.784;9.190;2023-03-05T00:46:15;6.80;99.90
10964;DHT22;5534;48.784;9.190;2023-03-05T00:48:41;6.80;99.90
10964;DHT22;5534;48.784;9.190;2023-03-05T00:51:07;6.80;99.90
10964;DHT22;5534;48.784;9.190;2023-03-05T00:53:34;6.90;99.90
10964;DHT22;5534;48.784;9.190;2023-03-05T00:55:59;6.90;99.90
10964;DHT22;5534;48.784;9.190;2023-03-05T00:58:25;6.90;99.90
10964;DHT22;5534;48.784;9.190;2023-03-05T01:00:51;6.90;99.90
10964;DHT22;5534;48.784;9.190;2023-03-05T01:03:17;6.90;99.90
10964;DHT22;5534;48.784;9.190;2023-03-05T01:05:43;6.80;99.90
10964;DHT22;5534;48.784;9.190;2023-03-05T01:08:09;6.80;99.90
10964;DHT22;5534;48.784;9.190;2023-03-05T01:10:35;6.90;99.90
10964;DHT22;5534;48.784;9.190;2023-03-05T01:13:01;6.80;99.90
10964;DHT22;5534;48.784;9.190;2023-03-05T01:15:27;6.80;99.90
10964;DHT22;5534;48.784;9.190;2023-03-05T01:17:53;6.70;99.90
10964;DHT22;5534;48.784;9.190;2023-03-05T01:20:20;6.70;99.90
10964;DHT22;5534;48.784;9.190;2023-03-05T01:22:46;6.70;99.90
10964;DHT22;5534;48.784;9.190;2023-03-05T01:25:12;6.50;99.90
10964;DHT22;5534;48.784;9.190;2023-03-05T01:27:38;6.20;99.90
10964;DHT22;5534;48.784;9.190;2023-03-05T01:30:05;5.80;99.90
10964;DHT22;5534;48.784;9.190;2023-03-05T01:32:33;5.90;99.90
10964;DHT22;5534;48.784;9.190;2023-03-05T01:35:04;6.10;99.90
10964;DHT22;5534;48.784;9.190;2023-03-05T01:37:30;6.50;99.90
10964;DHT22;5534;48.784;9.190;2023-03-05T01:39:56;6.70;99.90
10964;DHT22;5534;48.784;9.190;2023-03-05T01:42:23;6.80;99.90
10964;DHT22;5534;48.784;9.190;2023-03-05T01:45:04;6.90;99.90
10964;DHT22;5534;48.784;9.190;2023-03-05T01:47:30;6.90;99.90
10964;DHT22;5534;48.784;9.190;2023-03-05T01:49:56;6.90;99.90
10964;DHT22;5534;48.784;9.190;2023-03-05T01:52:24;6.80;99.90
10964;DHT22;5534;48.784;9.190;2023-03-05T01:54:56;6.80;99.90
10964;DHT22;5534;48.784;9.190;2023-03-05T01:57:35;6.90;99.90
10964;DHT22;5534;48.784;9.190;2023-03-05T02:00:11;6.80;99.90
10964;DHT22;5534;48.784;9.190;2023-03-05T02:02:37;6.80;99.90
10964;DHT22;5534;48.784;9.190;2023-03-05T02:05:07;6.90;99.90
10964;DHT22;5534;48.784;9.190;2023-03-05T02:07:34;6.80;99.90
10964;DHT22;5534;48.784;9.190;2023-03-05T02:12:40;6.30;99.90
10964;DHT22;5534;48.784;9.190;2023-03-05T02:15:07;6.60;99.90
10964;DHT22;5534;48.784;9.190;2023-03-05T02:17:33;6.70;99.90
10964;DHT22;5534;48.784;9.190;2023-03-05T02:20:12;6.90;99.90
10964;DHT22;5534;48.784;9.190;2023-03-05T02:22:38;6.80;99.90
10964;DHT22;5534;48.784;9.190;2023-03-05T02:25:19;6.90;99.90
10964;DHT22;5534;48.784;9.190;2023-03-05T02:27:53;6.80;99.90
10964;DHT22;5534;48.784;9.190;2023-03-05T02:30:19;6.80;99.90
10964;DHT22;5534;48.784;9.190;2023-03-05T02:32:45;6.80;99.90
10964;DHT22;5534;48.784;9.190;2023-03-05T02:35:11;6.80;99.90
10964;DHT22;5534;48.784;9.190;2023-03-05T02:37:37;6.80;99.90
10964;DHT22;5534;48.784;9.190;2023-03-05T02:40:04;6.80;99.90
10964;DHT22;5534;48.784;9.190;2023-03-05T02:42:29;6.80;99.90
10964;DHT22;5534;48.784;9.190;2023-03-05T02:44:59;6.80;99.90
10964;DHT22;5534;48.784;9.190;2023-03-05T02:47:26;6.90;99.90
10964;DHT22;5534;48.784;9.190;2023-03-05T02:49:52;6.90;99.90
10964;DHT22;5534;48.784;9.190;2023-03-05T02:52:19;6.90;99.90
10964;DHT22;5534;48.784;9.190;2023-03-05T02:54:48;6.80;99.90
10964;DHT22;5534;48.784;9.190;2023-03-05T02:57:14;6.80;99.90
10964;DHT22;5534;48.784;9.190;2023-03-05T02:59:40;6.60;99.90
10964;DHT22;5534;48.784;9.190;2023-03-05T03:02:06;6.60;99.90
10964;DHT22;5534;48.784;9.190;2023-03-05T03:04:32;6.40;99.90
10964;DHT22;5534;48.784;9.190;2023-03-05T03:06:58;6.40;99.90
10964;DHT22;5534;48.784;9.190;2023-03-05T03:09:27;6.50;99.90
10964;DHT22;5534;48.784;9.190;2023-03-05T03:11:53;6.60;99.90
10964;DHT22;5534;48.784;9.190;2023-03-05T03:14:20;6.70;99.90
10964;DHT22;5534;48.784;9.190;2023-03-05T03:16:46;6.70;99.90
10964;DHT22;5534;48.784;9.190;2023-03-05T03:19:12;6.70;99.90
10964;DHT22;5534;48.784;9.190;2023-03-05T03:21:37;6.80;99.90
10964;DHT22;5534;48.784;9.190;2023-03-05T03:24:03;6.70;99.90
10964;DHT22;5534;48.784;9.190;2023-03-05T03:26:29;6.70;99.90
10964;DHT22;5534;48.784;9.190;2023-03-05T03:28:56;6.70;99.90
10964;DHT22;5534;48.784;9.190;2023-03-05T03:31:22;6.70;99.90
10964;DHT22;5534;48.784;9.190;2023-03-05T03:33:48;6.80;99.90
10964;DHT22;5534;48.784;9.190;2023-03-05T03:36:14;6.70;99.90
10964;DHT22;5534;48.784;9.190;2023-03-05T03:38:40;6.70;99.90
10964;DHT22;5534;48.784;9.190;2023-03-05T03:41:06;6.90;99.90
10964;DHT22;5534;48.784;9.190;2023-03-05T03:43:33;6.70;99.90
10964;DHT22;5534;48.784;9.190;2023-03-05T03:45:59;6.40;99.90
10964;DHT22;5534;48.784;9.190;2023-03-05T03:48:25;6.60;99.90
10964;DHT22;5534;48.784;9.190;2023-03-05T03:50:51;6.60;99.90
10964;DHT22;5534;48.784;9.190;2023-03-05T03:53:16;6.60;99.90
10964;DHT22;5534;48.784;9.190;2023-03-05T03:55:42;6.70;99.90
10964;DHT22;5534;48.784;9.190;2023-03-05T03:58:10;6.70;99.90
10964;DHT22;5534;48.784;9.190;2023-03-05T04:00:37;6.70;99.90
10964;DHT22;5534;48.784;9.190;2023-03-05T04:03:03;6.80;99.90
10964;DHT22;5534;48.784;9.190;2023-03-05T04:05:29;6.70;99.90
10964;DHT22;5534;48.784;9.190;2023-03-05T04:07:55;6.70;99.90
10964;DHT22;5534;48.784;9.190;2023-03-05T04:10:23;6.80;99.90
10964;DHT22;5534;48.784;9.190;2023-03-05T04:12:49;6.90;99.90
10964;DHT22;5534;48.784;9.190;2023-03-05T04:15:15;6.80;99.90
10964;DHT22;5534;48.784;9.190;2023-03-05T04:17:40;6.80;99.90
10964;DHT22;5534;48.784;9.190;2023-03-05T04:20:06;6.90;99.90
10964;DHT22;5534;48.784;9.190;2023-03-05T04:22:35;6.80;99.90
10964;DHT22;5534;48.784;9.190;2023-03-05T04:25:02;6.80;99.90
10964;DHT22;5534;48.784;9.190;2023-03-05T04:27:34;6.80;99.90
10964;DHT22;5534;48.784;9.190;2023-03-05T04:30:02;6.80;99.90
10964;DHT22;5534;48.784;9.190;2023-03-05T04:32:28;6.80;99.90
10964;DHT22;5534;48.784;9.190;2023-03-05T04:34:55;6.80;99.90
10964;DHT22;5534;48.784;9.190;2023-03-05T04:37:22;6.70;99.90
10964;DHT22;5534;48.784;9.190;2023-03-05T04:39:48;6.70;99.90
10964;DHT22;5534;48.784;9.190;2023-03-05T04:42:14;6.70;99.90
10964;DHT22;5534;48.784;9.190;2023-03-05T04:44:39;6.70;99.90
10964;DHT22;5534;48.784;9.190;2023-03-05T04:47:05;6.60;99.90
10964;DHT22;5534;48.784;9.190;2023-03-05T04:49:31;6.60;99.90
10964;DHT22;5534;48.784;9.190;2023-03-05T04:51:57;6.60;99.90
10964;DHT22;5534;48.784;9.190;2023-03-05T04:54:23;6.60;99.90
10964;DHT22;5534;48.784;9.190;2023-03-05T04:56:49;6.70;99.90
10964;DHT22;5534;48.784;9.190;2023-03-05T04:59:14;6.70;99.90
10964;DHT22;5534;48.784;9.190;2023-03-05T05:01:40;6.70;99.90
10964;DHT22;5534;48.784;9.190;2023-03-05T05:04:07;6.70;99.90
10964;DHT22;5534;48.784;9.190;2023-03-05T05:06:33;6.80;99.90
10964;DHT22;5534;48.784;9.190;2023-03-05T05:08:59;7.00;99.90
10964;DHT22;5534;48.784;9.190;2023-03-05T05:11:25;6.90;99.90
10964;DHT22;5534;48.784;9.190;2023-03-05T05:13:51;6.80;99.90
10964;DHT22;5534;48.784;9.190;2023-03-05T05:16:16;6.80;99.90
10964;DHT22;5534;48.784;9.190;2023-03-05T05:18:43;6.80;99.90
10964;DHT22;5534;48.784;9.190;2023-03-05T05:21:13;6.80;99.90
10964;DHT22;5534;48.784;9.190;2023-03-05T05:23:39;7.00;99.90
10964;DHT22;5534;48.784;9.190;2023-03-05T05:26:06;6.80;99.90
10964;DHT22;5534;48.784;9.190;2023-03-05T05:28:34;6.90;99.90
10964;DHT22;5534;48.784;9.190;2023-03-05T05:31:04;6.90;99.90
10964;DHT22;5534;48.784;9.190;2023-03-05T05:33:30;6.90;99.90
10964;DHT22;5534;48.784;9.190;2023-03-05T05:35:56;6.80;99.90
10964;DHT22;5534;48.784;9.190;2023-03-05T05:38:22;6.60;99.90
10964;DHT22;5534;48.784;9.190;2023-03-05T05:40:48;6.70;99.90
10964;DHT22;5534;48.784;9.190;2023-03-05T05:43:13;6.70;99.90
10964;DHT22;5534;48.784;9.190;2023-03-05T05:45:39;6.80;99.90
10964;DHT22;5534;48.784;9.190;2023-03-05T05:48:06;6.80;99.90
10964;DHT22;5534;48.784;9.190;2023-03-05T05:50:31;6.80;99.90
10964;DHT22;5534;48.784;9.190;2023-03-05T05:52:57;6.60;99.90
10964;DHT22;5534;48.784;9.190;2023-03-05T05:55:23;6.70;99.90
10964;DHT22;5534;48.784;9.190;2023-03-05T05:57:49;6.70;99.90
10964;DHT22;5534;48.784;9.190;2023-03-05T06:00:15;6.70;99.90
10964;DHT22;5534;48.784;9.190;2023-03-05T06:02:42;6.70;99.90
10964;DHT22;5534;48.784;9.190;2023-03-05T06:05:11;6.80;99.90
10964;DHT22;5534;48.784;9.190;2023-03-05T06:07:37;6.80;99.90
10964;DHT22;5534;48.784;9.190;2023-03-05T06:10:03;6.70;99.90
10964;DHT22;5534;48.784;9.190;2023-03-05T06:12:29;6.80;99.90
10964;DHT22;5534;48.784;9.190;2023-03-05T06:14:55;6.80;99.90
10964;DHT22;5534;48.784;9.190;2023-03-05T06:17:22;6.70;99.90
10964;DHT22;5534;48.784;9.190;2023-03-05T06:19:47;6.70;99.90
10964;DHT22;5534;48.784;9.190;2023-03-05T06:22:13;6.70;99.90
10964;DHT22;5534;48.784;9.190;2023-03-05T06:24:39;6.70;99.90
10964;DHT22;5534;48.784;9.190;2023-03-05T06:27:05;6.80;99.90
10964;DHT22;5534;48.784;9.190;2023-03-05T06:29:31;6.70;99.90
10964;DHT22;5534;48.784;9.190;2023-03-05T06:31:57;6.70;99.90
10964;DHT22;5534;48.784;9.190;2023-03-05T06:34:23;6.80;99.90
10964;DHT22;5534;48.784;9.190;2023-03-05T06:36:48;6.60;99.90
10964;DHT22;5534;48.784;9.190;2023-03-05T06:39:15;6.70;99.90
10964;DHT22;5534;48.784;9.190;2023-03-05T06:41:41;6.80;99.90
10964;DHT22;5534;48.784;9.190;2023-03-05T06:44:08;6.70;99.90
10964;DHT22;5534;48.784;9.190;2023-03-05T06:46:35;6.70;99.90
10964;DHT22;5534;48.784;9.190;2023-03-05T06:49:03;6.70;99.90
10964;DHT22;5534;48.784;9.190;2023-03-05T06:51:32;6.70;99.90
10964;DHT22;5534;48.784;9.190;2023-03-05T06:54:17;6.80;99.90
10964;DHT22;5534;48.784;9.190;2023-03-05T06:56:45;6.70;99.90
10964;DHT22;5534;48.784;9.190;2023-03-05T06:59:13;6.80;99.90
10964;DHT22;5534;48.784;9.190;2023-03-05T07:01:39;6.80;99.90
10964;DHT22;5534;48.784;9.190;2023-03-05T07:04:06;6.70;99.90
10964;DHT22;5534;48.784;9.190;2023-03-05T07:06:33;6.80;99.90
10964;DHT22;5534;48.784;9.190;2023-03-05T07:09:00;6.80;99.90
10964;DHT22;5534;48.784;9.190;2023-03-05T07:11:26;6.80;99.90
10964;DHT22;5534;48.784;9.190;2023-03-05T07:13:52;6.80;99.90
10964;DHT22;5534;48.784;9.190;2023-03-05T07:16:24;6.70;99.90
10964;DHT22;5534;48.784;9.190;2023-03-05T07:18:51;6.80;99.90
10964;DHT22;5534;48.784;9.190;2023-03-05T07:21:20;6.80;99.90
10964;DHT22;5534;48.784;9.190;2023-03-05T07:23:46;6.80;99.90
10964;DHT22;5534;48.784;9.190;2023-03-05T07:26:12;6.80;99.90
10964;DHT22;5534;48.784;9.190;2023-03-05T07:28:38;6.80;99.90
10964;DHT22;5534;48.784;9.190;2023-03-05T07:31:06;6.80;99.90
10964;DHT22;5534;48.784;9.190;2023-03-05T07:33:33;6.80;99.90
10964;DHT22;5534;48.784;9.190;2023-03-05T07:35:59;6.80;99.90
10964;DHT22;5534;48.784;9.190;2023-03-05T07:38:26;6.80;99.90
10964;DHT22;5534;48.784;9.190;2023-03-05T07:40:52;6.70;99.90
10964;DHT22;5534;48.784;9.190;2023-03-05T07:43:18;6.70;99.90
10964;DHT22;5534;48.784;9.190;2023-03-05T07:45:44;6.80;99.90
10964;DHT22;5534;48.784;9.190;2023-03-05T07:48:16;6.80;99.90
10964;DHT22;5534;48.784;9.190;2023-03-05T07:50:42;6.80;99.90
10964;DHT22;5534;48.784;9.190;2023-03-05T07:53:08;6.80;99.90
10964;DHT22;5534;48.784;9.190;2023-03-05T07:55:34;6.80;99.90
10964;DHT22;5534;48.784;9.190;2023-03-05T07:58:00;6.80;99.90
10964;DHT22;5534;48.784;9.190;2023-03-05T08:00:26;6.90;99.90
10964;DHT22;5534;48.784;9.190;2023-03-05T08:02:52;6.80;99.90
10964;DHT22;5534;48.784;9.190;2023-03-05T08:05:18;6.70;99.90
10964;DHT22;5534;48.784;9.190;2023-03-05T08:07:43;6.80;99.90
10964;DHT22;5534;48.784;9.190;2023-03-05T08:10:09;7.10;99.90
10964;DHT22;5534;48.784;9.190;2023-03-05T08:12:35;7.00;99.90
10964;DHT22;5534;48.784;9.190;2023-03-05T08:15:01;7.10;99.90
10964;DHT22;5534;48.784;9.190;2023-03-05T08:17:27;7.00;99.90
10964;DHT22;5534;48.784;9.190;2023-03-05T08:19:53;7.00;99.90
10964;DHT22;5534;48.784;9.190;2023-03-05T08:22:22;7.00;99.90
10964;DHT22;5534;48.784;9.190;2023-03-05T08:24:47;6.90;99.90
10964;DHT22;5534;48.784;9.190;2023-03-05T08:27:16;7.00;99.90
10964;DHT22;5534;48.784;9.190;2023-03-05T08:29:42;7.00;99.90
10964;DHT22;5534;48.784;9.190;2023-03-05T08:32:07;7.10;99.90
10964;DHT22;5534;48.784;9.190;2023-03-05T08:34:33;7.10;99.90
10964;DHT22;5534;48.784;9.190;2023-03-05T08:36:59;7.20;99.90
10964;DHT22;5534;48.784;9.190;2023-03-05T08:39:25;7.20;99.90
10964;DHT22;5534;48.784;9.190;2023-03-05T08:41:51;7.20;99.90
10964;DHT22;5534;48.784;9.190;2023-03-05T08:44:17;7.10;99.90
10964;DHT22;5534;48.784;9.190;2023-03-05T08:46:42;7.10;99.90
10964;DHT22;5534;48.784;9.190;2023-03-05T08:49:09;7.20;99.90
10964;DHT22;5534;48.784;9.190;2023-03-05T08:51:35;7.20;99.90
10964;DHT22;5534;48.784;9.190;2023-03-05T08:54:01;7.30;99.90
10964;DHT22;5534;48.784;9.190;2023-03-05T08:56:32;7.30;99.90
10964;DHT22;5534;48.784;9.190;2023-03-05T08:58:58;7.20;99.90
10964;DHT22;5534;48.784;9.190;2023-03-05T09:01:24;7.30;99.90
10964;DHT22;5534;48.784;9.190;2023-03-05T09:03:49;7.30;99.90
10964;DHT22;5534;48.784;9.190;2023-03-05T09:06:15;7.40;99.90
10964;DHT22;5534;48.784;9.190;2023-03-05T09:08:41;7.40;99.90
10964;DHT22;5534;48.784;9.190;2023-03-05T09:11:10;7.50;99.90
10964;DHT22;5534;48.784;9.190;2023-03-05T09:13:36;7.50;99.90
10964;DHT22;5534;48.784;9.190;2023-03-05T09:16:08;7.50;99.90
10964;DHT22;5534;48.784;9.190;2023-03-05T09:18:38;7.50;99.90
10964;DHT22;5534;48.784;9.190;2023-03-05T09:21:13;7.50;99.90
10964;DHT22;5534;48.784;9.190;2023-03-05T09:23:39;7.30;99.90
10964;DHT22;5534;48.784;9.190;2023-03-05T09:26:09;7.30;99.90
10964;DHT22;5534;48.784;9.190;2023-03-05T09:28:39;7.30;99.90
10964;DHT22;5534;48.784;9.190;2023-03-05T09:31:08;7.30;99.90
10964;DHT22;5534;48.784;9.190;2023-03-05T09:33:35;7.40;99.90
10964;DHT22;5534;48.784;9.190;2023-03-05T09:36:01;7.40;99.90
10964;DHT22;5534;48.784;9.190;2023-03-05T09:38:28;7.40;99.90
10964;DHT22;5534;48.784;9.190;2023-03-05T09:41:03;7.30;99.90
10964;DHT22;5534;48.784;9.190;2023-03-05T09:47:17;7.40;99.90
10964;DHT22;5534;48.784;9.190;2023-03-05T09:52:43;7.30;99.90
10964;DHT22;5534;48.784;9.190;2023-03-05T09:55:19;7.20;99.90
10964;DHT22;5534;48.784;9.190;2023-03-05T09:57:58;7.20;99.90
10964;DHT22;5534;48.784;9.190;2023-03-05T10:00:43;7.20;99.90
10964;DHT22;5534;48.784;9.190;2023-03-05T10:03:24;7.10;99.90
10964;DHT22;5534;48.784;9.190;2023-03-05T10:08:28;7.40;99.90
10964;DHT22;5534;48.784;9.190;2023-03-05T10:11:01;7.50;99.90
10964;DHT22;5534;48.784;9.190;2023-03-05T10:13:33;7.90;99.90
10964;DHT22;5534;48.784;9.190;2023-03-05T10:21:52;8.00;99.90
10964;DHT22;5534;48.784;9.190;2023-03-05T10:27:10;7.90;99.90
10964;DHT22;5534;48.784;9.190;2023-03-05T10:30:03;7.80;99.90
10964;DHT22;5534;48.784;9.190;2023-03-05T10:32:57;7.70;99.90
10964;DHT22;5534;48.784;9.190;2023-03-05T10:41:20;7.70;99.90
10964;DHT22;5534;48.784;9.190;2023-03-05T10:46:31;7.60;99.90
10964;DHT22;5534;48.784;9.190;2023-03-05T10:49:04;7.60;99.90
10964;DHT22;5534;48.784;9.190;2023-03-05T10:51:53;7.60;99.90
10964;DHT22;5534;48.784;9.190;2023-03-05T10:54:31;7.70;99.90
10964;DHT22;5534;48.784;9.190;2023-03-05T10:57:18;7.80;99.90
10964;DHT22;5534;48.784;9.190;2023-03-05T10:59:51;7.70;99.90
10964;DHT22;5534;48.784;9.190;2023-03-05T11:02:18;7.60;99.90
10964;DHT22;5534;48.784;9.190;2023-03-05T11:04:44;7.70;99.90
10964;DHT22;5534;48.784;9.190;2023-03-05T11:10:19;7.70;99.90
10964;DHT22;5534;48.784;9.190;2023-03-05T11:12:46;7.70;99.90
10964;DHT22;5534;48.784;9.190;2023-03-05T11:18:27;7.70;99.90
10964;DHT22;5534;48.784;9.190;2023-03-05T11:23:15;7.50;99.90
10964;DHT22;5534;48.784;9.190;2023-03-05T11:28:28;7.50;99.90
10964;DHT22;5534;48.784;9.190;2023-03-05T11:34:10;7.50;99.90
10964;DHT22;5534;48.784;9.190;2023-03-05T11:39:20;7.30;99.90
10964;DHT22;5534;48.784;9.190;2023-03-05T11:44:52;7.20;99.90
10964;DHT22;5534;48.784;9.190;2023-03-05T11:47:38;7.30;99.90
10964;DHT22;5534;48.784;9.190;2023-03-05T11:52:49;7.30;99.90
10964;DHT22;5534;48.784;9.190;2023-03-05T11:55:44;7.30;99.90
10964;DHT22;5534;48.784;9.190;2023-03-05T12:01:22;7.20;99.90
10964;DHT22;5534;48.784;9.190;2023-03-05T12:03:50;7.30;99.90
10964;DHT22;5534;48.784;9.190;2023-03-05T12:06:22;7.30;99.90
10964;DHT22;5534;48.784;9.190;2023-03-05T12:08:57;7.40;99.90
10964;DHT22;5534;48.784;9.190;2023-03-05T12:11:29;7.50;99.90
10964;DHT22;5534;48.784;9.190;2023-03-05T12:14:26;7.50;99.90
10964;DHT22;5534;48.784;9.190;2023-03-05T12:21:06;7.50;99.90
10964;DHT22;5534;48.784;9.190;2023-03-05T12:23:56;7.50;99.90
10964;DHT22;5534;48.784;9.190;2023-03-05T12:29:32;7.50;99.90
10964;DHT22;5534;48.784;9.190;2023-03-05T12:32:50;7.40;99.90
10964;DHT22;5534;48.784;9.190;2023-03-05T12:34:59;7.40;99.90
10964;DHT22;5534;48.784;9.190;2023-03-05T12:42:51;7.50;99.90
10964;DHT22;5534;48.784;9.190;2023-03-05T12:47:45;7.50;99.90
10964;DHT22;5534;48.784;9.190;2023-03-05T12:58:14;7.40;99.90
10964;DHT22;5534;48.784;9.190;2023-03-05T13:00:42;7.40;99.90
10964;DHT22;5534;48.784;9.190;2023-03-05T13:03:15;7.50;99.90
10964;DHT22;5534;48.784;9.190;2023-03-05T13:05:51;7.50;99.90
10964;DHT22;5534;48.784;9.190;2023-03-05T13:08:27;7.60;99.90
10964;DHT22;5534;48.784;9.190;2023-03-05T13:10:56;7.50;99.90
10964;DHT22;5534;48.784;9.190;2023-03-05T13:13:29;7.40;99.90
10964;DHT22;5534;48.784;9.190;2023-03-05T13:15:57;7.50;99.90
10964;DHT22;5534;48.784;9.190;2023-03-05T13:18:26;7.70;99.90
10964;DHT22;5534;48.784;9.190;2023-03-05T13:21:03;7.80;99.90
10964;DHT22;5534;48.784;9.190;2023-03-05T13:23:31;7.80;99.90
10964;DHT22;5534;48.784;9.190;2023-03-05T13:26:13;7.70;99.90
10964;DHT22;5534;48.784;9.190;2023-03-05T13:28:41;7.70;99.90
10964;DHT22;5534;48.784;9.190;2023-03-05T13:31:16;7.80;99.90
10964;DHT22;5534;48.784;9.190;2023-03-05T13:33:51;7.90;99.90
10964;DHT22;5534;48.784;9.190;2023-03-05T13:36:20;8.00;99.90
10964;DHT22;5534;48.784;9.190;2023-03-05T13:38:47;8.00;99.90
10964;DHT22;5534;48.784;9.190;2023-03-05T13:46:36;7.90;99.90
10964;DHT22;5534;48.784;9.190;2023-03-05T13:49:26;7.70;99.90
10964;DHT22;5534;48.784;9.190;2023-03-05T13:51:55;7.70;99.90
10964;DHT22;5534;48.784;9.190;2023-03-05T13:54:22;7.70;99.90
10964;DHT22;5534;48.784;9.190;2023-03-05T13:57:25;7.70;99.90
10964;DHT22;5534;48.784;9.190;2023-03-05T13:59:54;7.60;99.90
10964;DHT22;5534;48.784;9.190;2023-03-05T14:02:19;7.70;99.90
10964;DHT22;5534;48.784;9.190;2023-03-05T14:04:47;7.60;99.90
10964;DHT22;5534;48.784;9.190;2023-03-05T14:09:47;7.70;99.90
10964;DHT22;5534;48.784;9.190;2023-03-05T14:14:56;7.80;99.90
10964;DHT22;5534;48.784;9.190;2023-03-05T14:17:42;7.80;99.90
10964;DHT22;5534;48.784;9.190;2023-03-05T14:20:27;7.80;99.90
10964;DHT22;5534;48.784;9.190;2023-03-05T14:22:58;7.60;99.90
10964;DHT22;5534;48.784;9.190;2023-03-05T14:25:32;7.60;99.90
10964;DHT22;5534;48.784;9.190;2023-03-05T14:28:01;7.70;99.90
10964;DHT22;5534;48.784;9.190;2023-03-05T14:30:28;7.70;99.90
10964;DHT22;5534;48.784;9.190;2023-03-05T14:32:56;7.60;99.90
10964;DHT22;5534;48.784;9.190;2023-03-05T14:35:26;7.70;99.90
10964;DHT22;5534;48.784;9.190;2023-03-05T14:37:55;7.50;99.90
10964;DHT22;5534;48.784;9.190;2023-03-05T14:40:32;7.50;99.90
10964;DHT22;5534;48.784;9.190;2023-03-05T14:43:03;7.40;99.90
10964;DHT22;5534;48.784;9.190;2023-03-05T14:47:57;7.40;99.90
10964;DHT22;5534;48.784;9.190;2023-03-05T14:53:01;7.50;99.90
10964;DHT22;5534;48.784;9.190;2023-03-05T14:55:30;7.40;99.90
10964;DHT22;5534;48.784;9.190;2023-03-05T14:58:13;7.40;99.90
10964;DHT22;5534;48.784;9.190;2023-03-05T15:00:41;7.40;99.90
10964;DHT22;5534;48.784;9.190;2023-03-05T15:03:12;7.40;99.90
10964;DHT22;5534;48.784;9.190;2023-03-05T15:05:39;7.30;99.90
10964;DHT22;5534;48.784;9.190;2023-03-05T15:08:05;7.30;99.90
10964;DHT22;5534;48.784;9.190;2023-03-05T15:10:32;7.30;99.90
10964;DHT22;5534;48.784;9.190;2023-03-05T15:12:58;7.30;99.90
10964;DHT22;5534;48.784;9.190;2023-03-05T15:15:24;7.30;99.90
10964;DHT22;5534;48.784;9.190;2023-03-05T15:17:50;7.40;99.90
10964;DHT22;5534;48.784;9.190;2023-03-05T15:20:21;7.40;99.90
10964;DHT22;5534;48.784;9.190;2023-03-05T15:22:48;7.40;99.90
10964;DHT22;5534;48.784;9.190;2023-03-05T15:25:15;7.40;99.90
10964;DHT22;5534;48.784;9.190;2023-03-05T15:27:41;7.20;99.90
10964;DHT22;5534;48.784;9.190;2023-03-05T15:30:10;7.30;99.90
10964;DHT22;5534;48.784;9.190;2023-03-05T15:32:40;7.30;99.90
10964;DHT22;5534;48.784;9.190;2023-03-05T15:35:07;7.30;99.90
10964;DHT22;5534;48.784;9.190;2023-03-05T15:37:37;7.20;99.90
10964;DHT22;5534;48.784;9.190;2023-03-05T15:40:04;7.20;99.90
10964;DHT22;5534;48.784;9.190;2023-03-05T15:42:30;7.30;99.90
10964;DHT22;5534;48.784;9.190;2023-03-05T15:44:55;7.30;99.90
10964;DHT22;5534;48.784;9.190;2023-03-05T15:47:21;7.30;99.90
10964;DHT22;5534;48.784;9.190;2023-03-05T15:49:47;7.40;99.90
10964;DHT22;5534;48.784;9.190;2023-03-05T15:52:13;7.60;99.90
10964;DHT22;5534;48.784;9.190;2023-03-05T15:54:40;7.30;99.90
10964;DHT22;5534;48.784;9.190;2023-03-05T15:57:09;7.30;99.90
10964;DHT22;5534;48.784;9.190;2023-03-05T15:59:35;7.40;99.90
10964;DHT22;5534;48.784;9.190;2023-03-05T16:02:02;7.40;99.90
10964;DHT22;5534;48.784;9.190;2023-03-05T16:04:28;7.40;99.90
10964;DHT22;5534;48.784;9.190;2023-03-05T16:06:54;7.50;99.90
10964;DHT22;5534;48.784;9.190;2023-03-05T16:09:25;7.30;99.90
10964;DHT22;5534;48.784;9.190;2023-03-05T16:11:53;7.30;99.90
10964;DHT22;5534;48.784;9.190;2023-03-05T16:14:22;7.30;99.90
10964;DHT22;5534;48.784;9.190;2023-03-05T16:16:50;7.40;99.90
10964;DHT22;5534;48.784;9.190;2023-03-05T16:19:18;7.40;99.90
10964;DHT22;5534;48.784;9.190;2023-03-05T16:21:45;7.40;99.90
10964;DHT22;5534;48.784;9.190;2023-03-05T16:24:12;7.40;99.90
10964;DHT22;5534;48.784;9.190;2023-03-05T16:26:41;7.30;99.90
10964;DHT22;5534;48.784;9.190;2023-03-05T16:29:07;7.30;99.90
10964;DHT22;5534;48.784;9.190;2023-03-05T16:31:36;7.20;99.90
10964;DHT22;5534;48.784;9.190;2023-03-05T16:34:10;7.30;99.90
10964;DHT22;5534;48.784;9.190;2023-03-05T16:36:39;7.40;99.90
10964;DHT22;5534;48.784;9.190;2023-03-05T16:39:05;7.40;99.90
10964;DHT22;5534;48.784;9.190;2023-03-05T16:41:31;7.50;99.90
10964;DHT22;5534;48.784;9.190;2023-03-05T16:43:57;7.40;99.90
10964;DHT22;5534;48.784;9.190;2023-03-05T16:46:25;7.40;99.90
10964;DHT22;5534;48.784;9.190;2023-03-05T16:48:51;7.40;99.90
10964;DHT22;5534;48.784;9.190;2023-03-05T16:51:17;7.40;99.90
10964;DHT22;5534;48.784;9.190;2023-03-05T16:53:44;7.30;99.90
10964;DHT22;5534;48.784;9.190;2023-03-05T16:56:10;7.40;99.90
10964;DHT22;5534;48.784;9.190;2023-03-05T16:58:37;7.40;99.90
10964;DHT22;5534;48.784;9.190;2023-03-05T17:01:09;7.40;99.90
10964;DHT22;5534;48.784;9.190;2023-03-05T17:03:35;7.60;99.90
10964;DHT22;5534;48.784;9.190;2023-03-05T17:06:11;7.40;99.90
10964;DHT22;5534;48.784;9.190;2023-03-05T17:08:37;7.50;99.90
10964;DHT22;5534;48.784;9.190;2023-03-05T17:11:04;7.40;99.90
10964;DHT22;5534;48.784;9.190;2023-03-05T17:13:29;7.40;99.90
10964;DHT22;5534;48.784;9.190;2023-03-05T17:15:55;7.40;99.90
10964;DHT22;5534;48.784;9.190;2023-03-05T17:18:21;7.40;99.90
10964;DHT22;5534;48.784;9.190;2023-03-05T17:20:47;7.30;99.90
10964;DHT22;5534;48.784;9.190;2023-03-05T17:23:13;7.30;99.90
10964;DHT22;5534;48.784;9.190;2023-03-05T17:25:39;7.30;99.90
10964;DHT22;5534;48.784;9.190;2023-03-05T17:28:05;7.30;99.90
10964;DHT22;5534;48.784;9.190;2023-03-05T17:30:30;7.20;99.90
10964;DHT22;5534;48.784;9.190;2023-03-05T17:32:58;7.30;99.90
10964;DHT22;5534;48.784;9.190;2023-03-05T17:35:24;7.30;99.90
10964;DHT22;5534;48.784;9.190;2023-03-05T17:37:50;7.30;99.90
10964;DHT22;5534;48.784;9.190;2023-03-05T17:40:18;7.30;99.90
10964;DHT22;5534;48.784;9.190;2023-03-05T17:42:43;7.40;99.90
10964;DHT22;5534;48.784;9.190;2023-03-05T17:45:09;7.30;99.90